Time,TemperatureF,DewpointF,PressureIn,WindDirection,WindDirectionDegrees,WindSpeedMPH,WindSpeedGustMPH,Humidity,HourlyPrecipIn,Conditions,Clouds,dailyrainin,SoftwareType,DateUTC
2013-06-19 00:00:00,66.0,13.7,27.19,North,0,0.0,0.0,13,0.00,CLR,OVC,0.00,WeatherDisplay:10.37,2013-06-19 05:00:00,
2013-06-19 00:05:00,65.8,13.6,27.19,North,0,0.0,0.0,13,0.00,CLR,OVC,0.00,WeatherDisplay:10.37,2013-06-19 05:05:00,
2013-06-19 00:10:00,65.8,13.6,27.19,North,0,0.0,0.0,13,0.00,CLR,OVC,0.00,WeatherDisplay:10.37,2013-06-19 05:10:00,
2013-06-19 00:15:00,65.7,13.4,27.19,North,0,0.0,0.0,13,0.00,CLR,OVC,0.00,WeatherDisplay:10.37,2013-06-19 05:15:00,
2013-06-19 00:20:00,65.5,13.3,27.19,North,0,0.0,0.0,13,0.00,CLR,OVC,0.00,WeatherDisplay:10.37,2013-06-19 05:20:00,
2013-06-19 00:25:00,65.3,13.1,27.19,North,0,0.0,0.0,13,0.00,CLR,OVC,0.00,WeatherDisplay:10.37,2013-06-19 05:25:00,
2013-06-19 00:30:00,65.1,16.3,27.19,North,0,0.0,0.0,15,0.00,CLR,OVC,0.00,WeatherDisplay:10.37,2013-06-19 05:30:00,
2013-06-19 00:35:00,64.8,16.0,27.19,North,0,0.0,0.0,15,0.00,CLR,OVC,0.00,WeatherDisplay:10.37,2013-06-19 05:35:00,
2013-06-19 00:40:00,64.8,16.0,27.19,North,0,0.0,0.0,15,0.00,CLR,OVC,0.00,WeatherDisplay:10.37,2013-06-19 05:40:00,
2013-06-19 00:45:00,64.6,15.8,27.19,North,0,0.0,0.0,15,0.00,CLR,OVC,0.00,WeatherDisplay:10.37,2013-06-19 05:45:00,
2013-06-19 00:50:00,64.4,15.7,27.19,North,0,0.0,0.0,15,0.00,CLR,OVC,0.00,WeatherDisplay:10.37,2013-06-19 05:50:00,
2013-06-19 00:55:00,64.4,15.7,27.19,North,0,0.0,0.0,15,0.00,CLR,OVC,0.00,WeatherDisplay:10.37,2013-06-19 05:55:00,
2013-06-19 01:00:00,64.2,17.0,27.19,North,0,0.0,0.0,16,0.00,CLR,OVC,0.00,WeatherDisplay:10.37,2013-06-19 06:00:00,
2013-06-19 01:05:00,64.2,17.0,27.19,North,0,0.0,0.0,16,0.00,CLR,OVC,0.00,WeatherDisplay:10.37,2013-06-19 06:05:00,
2013-06-19 01:10:00,64.0,16.9,27.19,North,0,0.0,0.0,16,0.00,CLR,OVC,0.00,WeatherDisplay:10.37,2013-06-19 06:10:00,
2013-06-19 01:15:00,63.9,16.7,27.19,North,0,0.0,0.0,16,0.00,CLR,OVC,0.00,WeatherDisplay:10.37,2013-06-19 06:15:00,
2013-06-19 01:20:00,63.7,16.6,27.19,North,0,0.0,0.0,16,0.00,CLR,OVC,0.00,WeatherDisplay:10.37,2013-06-19 06:20:00,
2013-06-19 01:25:00,63.5,16.4,27.19,North,0,0.0,0.0,16,0.00,CLR,OVC,0.00,WeatherDisplay:10.37,2013-06-19 06:25:00,
2013-06-19 01:30:00,63.1,18.9,27.19,North,0,0.0,0.0,18,0.00,CLR,OVC,0.00,WeatherDisplay:10.37,2013-06-19 06:30:00,
2013-06-19 01:35:00,63.1,18.9,27.19,North,0,0.0,0.0,18,0.00,CLR,OVC,0.00,WeatherDisplay:10.37,2013-06-19 06:35:00,
2013-06-19 01:40:00,63.0,18.7,27.19,North,0,0.0,0.0,18,0.00,CLR,OVC,0.00,WeatherDisplay:10.37,2013-06-19 06:40:00,
2013-06-19 01:45:00,62.8,18.6,27.19,North,0,0.0,0.0,18,0.00,CLR,OVC,0.00,WeatherDisplay:10.37,2013-06-19 06:45:00,
2013-06-19 01:50:00,62.6,18.4,27.19,North,0,0.0,0.0,18,0.00,CLR,OVC,0.00,WeatherDisplay:10.37,2013-06-19 06:50:00,
2013-06-19 01:55:00,62.4,21.9,27.19,North,0,0.0,0.0,21,0.00,CLR,OVC,0.00,WeatherDisplay:10.37,2013-06-19 06:55:00,
2013-06-19 02:00:00,62.2,21.8,27.19,North,0,0.0,0.0,21,0.00,CLR,OVC,0.00,WeatherDisplay:10.37,2013-06-19 07:00:00,
2013-06-19 02:05:00,62.1,21.6,27.19,North,0,0.0,0.0,21,0.00,CLR,OVC,0.00,WeatherDisplay:10.37,2013-06-19 07:05:00,
2013-06-19 02:10:00,61.9,19.1,27.19,North,0,0.0,0.0,19,0.00,CLR,OVC,0.00,WeatherDisplay:10.37,2013-06-19 07:10:00,
2013-06-19 02:15:00,61.7,21.3,27.19,North,0,0.0,0.0,21,0.00,CLR,OVC,0.00,WeatherDisplay:10.37,2013-06-19 07:15:00,
2013-06-19 02:20:00,61.7,21.3,27.19,North,0,0.0,0.0,21,0.00,CLR,OVC,0.00,WeatherDisplay:10.37,2013-06-19 07:20:00,
2013-06-19 02:25:00,61.5,21.2,27.19,North,0,0.0,0.0,21,0.00,CLR,OVC,0.00,WeatherDisplay:10.37,2013-06-19 07:25:00,
2013-06-19 02:30:00,61.3,24.2,27.19,North,0,0.0,0.0,24,0.00,CLR,OVC,0.00,WeatherDisplay:10.37,2013-06-19 07:30:00,
2013-06-19 02:35:00,61.2,24.0,27.19,North,0,0.0,0.0,24,0.00,CLR,OVC,0.00,WeatherDisplay:10.37,2013-06-19 07:35:00,
2013-06-19 02:40:00,61.0,23.9,27.19,North,0,0.0,0.0,24,0.00,CLR,OVC,0.00,WeatherDisplay:10.37,2013-06-19 07:40:00,
2013-06-19 02:45:00,60.8,23.7,27.19,North,0,0.0,0.0,24,0.00,CLR,OVC,0.00,WeatherDisplay:10.37,2013-06-19 07:45:00,
2013-06-19 02:50:00,60.6,24.6,27.19,North,0,0.0,0.0,25,0.00,CLR,OVC,0.00,WeatherDisplay:10.37,2013-06-19 07:50:00,
2013-06-19 02:55:00,60.4,24.4,27.19,North,0,0.0,0.0,25,0.00,CLR,OVC,0.00,WeatherDisplay:10.37,2013-06-19 07:55:00,
2013-06-19 03:00:00,60.3,24.3,27.19,North,0,0.0,0.0,25,0.00,CLR,OVC,0.00,WeatherDisplay:10.37,2013-06-19 08:00:00,
2013-06-19 03:05:00,60.1,24.1,27.19,North,0,0.0,0.0,25,0.00,CLR,OVC,0.00,WeatherDisplay:10.37,2013-06-19 08:05:00,
2013-06-19 03:10:00,60.1,24.1,27.19,North,0,0.0,0.0,25,0.00,CLR,OVC,0.00,WeatherDisplay:10.37,2013-06-19 08:10:00,
2013-06-19 03:15:00,59.9,23.9,27.19,North,0,0.0,0.0,25,0.00,CLR,OVC,0.00,WeatherDisplay:10.37,2013-06-19 08:15:00,
2013-06-19 03:20:00,59.7,23.8,27.19,North,0,0.0,0.0,25,0.00,CLR,OVC,0.00,WeatherDisplay:10.37,2013-06-19 08:20:00,
2013-06-19 03:25:00,59.7,23.8,27.19,North,0,0.0,0.0,25,0.00,CLR,OVC,0.00,WeatherDisplay:10.37,2013-06-19 08:25:00,
2013-06-19 03:30:00,59.5,23.6,27.19,North,0,0.0,0.0,25,0.00,CLR,OVC,0.00,WeatherDisplay:10.37,2013-06-19 08:30:00,
2013-06-19 03:35:00,59.4,23.5,27.19,North,0,0.0,0.0,25,0.00,CLR,OVC,0.00,WeatherDisplay:10.37,2013-06-19 08:35:00,
2013-06-19 03:40:00,59.2,23.3,27.19,North,0,0.0,0.0,25,0.00,CLR,OVC,0.00,WeatherDisplay:10.37,2013-06-19 08:40:00,
2013-06-19 03:45:00,59.0,24.1,27.19,North,0,0.0,0.0,26,0.00,CLR,OVC,0.00,WeatherDisplay:10.37,2013-06-19 08:45:00,
2013-06-19 03:50:00,58.8,24.0,27.19,North,0,0.0,0.0,26,0.00,CLR,OVC,0.00,WeatherDisplay:10.37,2013-06-19 08:50:00,
2013-06-19 03:55:00,58.6,23.8,27.19,North,0,0.0,0.0,26,0.00,CLR,OVC,0.00,WeatherDisplay:10.37,2013-06-19 08:55:00,
2013-06-19 04:00:00,58.5,24.6,27.19,North,0,0.0,0.0,27,0.00,CLR,OVC,0.00,WeatherDisplay:10.37,2013-06-19 09:00:00,
2013-06-19 04:05:00,58.3,24.4,27.19,North,0,0.0,0.0,27,0.00,CLR,OVC,0.00,WeatherDisplay:10.37,2013-06-19 09:05:00,
2013-06-19 04:10:00,58.1,24.3,27.19,North,0,0.0,0.0,27,0.00,CLR,OVC,0.00,WeatherDisplay:10.37,2013-06-19 09:10:00,
2013-06-19 04:15:00,57.9,24.1,27.19,North,0,0.0,0.0,27,0.00,CLR,OVC,0.00,WeatherDisplay:10.37,2013-06-19 09:15:00,
2013-06-19 04:20:00,57.9,24.1,27.19,North,0,0.0,0.0,27,0.00,CLR,OVC,0.00,WeatherDisplay:10.37,2013-06-19 09:20:00,
2013-06-19 04:25:00,57.7,23.0,27.19,North,0,0.0,0.0,26,0.00,CLR,OVC,0.00,WeatherDisplay:10.37,2013-06-19 09:25:00,
2013-06-19 04:30:00,57.7,23.0,27.19,North,0,0.0,0.0,26,0.00,CLR,OVC,0.00,WeatherDisplay:10.37,2013-06-19 09:30:00,
2013-06-19 04:35:00,57.7,23.0,27.19,North,0,0.0,0.0,26,0.00,CLR,OVC,0.00,WeatherDisplay:10.37,2013-06-19 09:35:00,
2013-06-19 04:40:00,57.7,22.1,27.19,North,0,0.0,0.0,25,0.00,CLR,OVC,0.00,WeatherDisplay:10.37,2013-06-19 09:40:00,
2013-06-19 04:45:00,57.6,22.0,27.19,North,0,0.0,0.0,25,0.00,CLR,OVC,0.00,WeatherDisplay:10.37,2013-06-19 09:45:00,
2013-06-19 04:50:00,57.6,22.0,27.19,North,0,0.0,0.0,25,0.00,CLR,OVC,0.00,WeatherDisplay:10.37,2013-06-19 09:50:00,
2013-06-19 04:55:00,57.6,22.0,27.19,North,0,0.0,0.0,25,0.00,CLR,OVC,0.00,WeatherDisplay:10.37,2013-06-19 09:55:00,
2013-06-19 05:00:00,57.4,21.8,27.19,North,0,0.0,0.0,25,0.00,CLR,OVC,0.00,WeatherDisplay:10.37,2013-06-19 10:00:00,
2013-06-19 05:05:00,57.2,21.6,27.19,North,0,0.0,0.0,25,0.00,CLR,OVC,0.00,WeatherDisplay:10.37,2013-06-19 10:05:00,
2013-06-19 05:10:00,57.2,20.7,27.19,North,0,0.0,0.0,24,0.00,CLR,OVC,0.00,WeatherDisplay:10.37,2013-06-19 10:10:00,
2013-06-19 05:15:00,57.2,20.7,27.19,North,0,0.0,0.0,24,0.00,CLR,OVC,0.00,WeatherDisplay:10.37,2013-06-19 10:15:00,
2013-06-19 05:20:00,57.2,18.6,27.19,North,0,0.0,0.0,22,0.00,CLR,OVC,0.00,WeatherDisplay:10.37,2013-06-19 10:20:00,
2013-06-19 05:25:00,57.0,18.5,27.19,North,0,0.0,0.0,22,0.00,CLR,OVC,0.00,WeatherDisplay:10.37,2013-06-19 10:25:00,
2013-06-19 05:30:00,57.0,18.5,27.19,North,0,0.0,0.0,22,0.00,CLR,OVC,0.00,WeatherDisplay:10.37,2013-06-19 10:30:00,
2013-06-19 05:35:00,57.0,18.5,27.19,North,0,0.0,0.0,22,0.00,CLR,OVC,0.00,WeatherDisplay:10.37,2013-06-19 10:35:00,
2013-06-19 05:40:00,57.0,16.3,27.19,North,0,0.0,0.0,20,0.00,CLR,OVC,0.00,WeatherDisplay:10.37,2013-06-19 10:40:00,
2013-06-19 05:45:00,57.0,16.3,27.19,North,0,0.0,0.0,20,0.00,CLR,OVC,0.00,WeatherDisplay:10.37,2013-06-19 10:45:00,
2013-06-19 05:50:00,57.0,16.3,27.19,North,0,0.0,0.0,20,0.00,CLR,OVC,0.00,WeatherDisplay:10.37,2013-06-19 10:50:00,
2013-06-19 05:55:00,56.8,16.1,27.19,North,0,0.0,0.0,20,0.00,CLR,OVC,0.00,WeatherDisplay:10.37,2013-06-19 10:55:00,
2013-06-19 06:00:00,56.8,16.1,27.19,North,0,0.0,0.0,20,0.00,CLR,OVC,0.00,WeatherDisplay:10.37,2013-06-19 11:00:00,
2013-06-19 06:05:00,56.8,16.1,27.19,North,0,0.0,0.0,20,0.00,CLR,OVC,0.00,WeatherDisplay:10.37,2013-06-19 11:05:00,
2013-06-19 06:10:00,56.8,16.1,27.19,North,0,0.0,0.0,20,0.00,CLR,OVC,0.00,WeatherDisplay:10.37,2013-06-19 11:10:00,
2013-06-19 06:15:00,56.8,16.1,27.19,North,0,0.0,0.0,20,0.00,CLR,OVC,0.00,WeatherDisplay:10.37,2013-06-19 11:15:00,
2013-06-19 06:20:00,57.0,16.3,27.19,North,0,0.0,0.0,20,0.00,CLR,OVC,0.00,WeatherDisplay:10.37,2013-06-19 11:20:00,
2013-06-19 06:25:00,57.2,18.6,27.19,North,0,0.0,0.0,22,0.00,CLR,OVC,0.00,WeatherDisplay:10.37,2013-06-19 11:25:00,
2013-06-19 06:30:00,57.2,18.6,27.19,North,0,0.0,0.0,22,0.00,CLR,OVC,0.00,WeatherDisplay:10.37,2013-06-19 11:30:00,
2013-06-19 06:35:00,57.4,18.8,27.19,North,0,0.0,0.0,22,0.00,CLR,OVC,0.00,WeatherDisplay:10.37,2013-06-19 11:35:00,
2013-06-19 06:40:00,57.7,19.1,27.19,North,0,0.0,0.0,22,0.00,CLR,OVC,0.00,WeatherDisplay:10.37,2013-06-19 11:40:00,
2013-06-19 06:45:00,57.9,15.8,27.19,North,0,0.0,0.0,19,0.00,CLR,OVC,0.00,WeatherDisplay:10.37,2013-06-19 11:45:00,
2013-06-19 06:50:00,58.1,16.0,27.19,North,0,0.0,0.0,19,0.00,CLR,OVC,0.00,WeatherDisplay:10.37,2013-06-19 11:50:00,
2013-06-19 06:55:00,58.3,16.1,27.19,North,0,0.0,0.0,19,0.00,CLR,OVC,0.00,WeatherDisplay:10.37,2013-06-19 11:55:00,
2013-06-19 07:00:00,58.5,16.3,27.19,North,0,0.0,0.0,19,0.00,CLR,OVC,0.00,WeatherDisplay:10.37,2013-06-19 12:00:00,
2013-06-19 07:05:00,58.8,16.6,27.19,North,0,0.0,0.0,19,0.00,CLR,OVC,0.00,WeatherDisplay:10.37,2013-06-19 12:05:00,
2013-06-19 07:10:00,59.0,16.7,27.19,North,0,0.0,0.0,19,0.00,CLR,OVC,0.00,WeatherDisplay:10.37,2013-06-19 12:10:00,
2013-06-19 07:15:00,59.4,17.0,27.19,North,0,0.0,0.0,19,0.00,CLR,OVC,0.00,WeatherDisplay:10.37,2013-06-19 12:15:00,
2013-06-19 07:20:00,59.7,17.3,27.19,North,0,0.0,0.0,19,0.00,CLR,OVC,0.00,WeatherDisplay:10.37,2013-06-19 12:20:00,
2013-06-19 07:25:00,60.1,17.6,27.19,North,0,0.0,0.0,19,0.00,CLR,OVC,0.00,WeatherDisplay:10.37,2013-06-19 12:25:00,
2013-06-19 07:30:00,60.4,17.9,27.19,North,0,0.0,0.0,19,0.00,CLR,OVC,0.00,WeatherDisplay:10.37,2013-06-19 12:30:00,
2013-06-19 07:35:00,60.6,18.1,27.19,North,0,0.0,0.0,19,0.00,CLR,OVC,0.00,WeatherDisplay:10.37,2013-06-19 12:35:00,
2013-06-19 07:40:00,61.0,14.4,27.19,North,0,0.0,0.0,16,0.00,CLR,OVC,0.00,WeatherDisplay:10.37,2013-06-19 12:40:00,
2013-06-19 07:45:00,61.3,14.7,27.19,North,0,0.0,0.0,16,0.00,CLR,OVC,0.00,WeatherDisplay:10.37,2013-06-19 12:45:00,
2013-06-19 07:50:00,61.7,15.0,27.19,North,0,0.0,0.0,16,0.00,CLR,OVC,0.00,WeatherDisplay:10.37,2013-06-19 12:50:00,
2013-06-19 07:55:00,61.9,15.1,27.19,North,0,0.0,0.0,16,0.00,CLR,OVC,0.00,WeatherDisplay:10.37,2013-06-19 12:55:00,
2013-06-19 08:00:00,62.4,15.6,27.19,North,0,0.0,0.0,16,0.00,CLR,OVC,0.00,WeatherDisplay:10.37,2013-06-19 13:00:00,
2013-06-19 08:05:00,62.8,15.9,27.19,North,0,0.0,0.0,16,0.00,CLR,OVC,0.00,WeatherDisplay:10.37,2013-06-19 13:05:00,
2013-06-19 08:10:00,63.1,16.2,27.19,North,0,0.0,0.0,16,0.00,CLR,OVC,0.00,WeatherDisplay:10.37,2013-06-19 13:10:00,
2013-06-19 08:15:00,63.5,16.4,27.19,North,0,0.0,0.0,16,0.00,CLR,OVC,0.00,WeatherDisplay:10.37,2013-06-19 13:15:00,
2013-06-19 08:20:00,63.9,16.7,27.19,North,0,0.0,0.0,16,0.00,CLR,OVC,0.00,WeatherDisplay:10.37,2013-06-19 13:20:00,
2013-06-19 08:25:00,64.2,12.3,27.19,North,0,0.0,0.0,13,0.00,CLR,OVC,0.00,WeatherDisplay:10.37,2013-06-19 13:25:00,
2013-06-19 08:30:00,64.6,12.6,27.19,North,0,0.0,0.0,13,0.00,CLR,OVC,0.00,WeatherDisplay:10.37,2013-06-19 13:30:00,
2013-06-19 08:35:00,64.9,12.8,27.19,North,0,0.0,0.0,13,0.00,CLR,OVC,0.00,WeatherDisplay:10.37,2013-06-19 13:35:00,
2013-06-19 08:40:00,65.5,13.3,27.19,North,0,0.0,0.0,13,0.00,CLR,OVC,0.00,WeatherDisplay:10.37,2013-06-19 13:40:00,
2013-06-19 08:45:00,65.7,13.4,27.19,North,0,0.0,0.0,13,0.00,CLR,OVC,0.00,WeatherDisplay:10.37,2013-06-19 13:45:00,
2013-06-19 08:50:00,65.8,13.6,27.19,North,0,0.0,0.0,13,0.00,CLR,OVC,0.00,WeatherDisplay:10.37,2013-06-19 13:50:00,
2013-06-19 08:55:00,66.0,13.7,27.19,North,0,0.0,0.0,13,0.00,CLR,OVC,0.00,WeatherDisplay:10.37,2013-06-19 13:55:00,
2013-06-19 09:00:00,66.2,12.0,27.19,North,0,0.0,0.0,12,0.00,CLR,OVC,0.00,WeatherDisplay:10.37,2013-06-19 14:00:00,
2013-06-19 09:05:00,66.4,12.2,27.19,North,0,0.0,0.0,12,0.00,CLR,OVC,0.00,WeatherDisplay:10.37,2013-06-19 14:05:00,
2013-06-19 09:10:00,66.4,12.2,27.19,North,0,0.0,0.0,12,0.00,CLR,OVC,0.00,WeatherDisplay:10.37,2013-06-19 14:10:00,
2013-06-19 09:15:00,66.6,12.3,27.19,North,0,0.0,0.0,12,0.00,CLR,OVC,0.00,WeatherDisplay:10.37,2013-06-19 14:15:00,
2013-06-19 09:20:00,66.9,12.6,27.19,North,0,0.0,0.0,12,0.00,CLR,OVC,0.00,WeatherDisplay:10.37,2013-06-19 14:20:00,
2013-06-19 09:25:00,67.3,12.9,27.19,North,0,0.0,0.0,12,0.00,CLR,OVC,0.00,WeatherDisplay:10.37,2013-06-19 14:25:00,
2013-06-19 09:30:00,67.8,13.3,27.19,North,0,0.0,0.0,12,0.00,CLR,OVC,0.00,WeatherDisplay:10.37,2013-06-19 14:30:00,
2013-06-19 09:35:00,68.2,13.6,27.19,North,0,0.0,0.0,12,0.00,CLR,OVC,0.00,WeatherDisplay:10.37,2013-06-19 14:35:00,
2013-06-19 09:40:00,68.7,14.0,27.19,North,0,0.0,0.0,12,0.00,CLR,OVC,0.00,WeatherDisplay:10.37,2013-06-19 14:40:00,
2013-06-19 09:45:00,68.9,14.1,27.19,North,0,0.0,0.0,12,0.00,CLR,OVC,0.00,WeatherDisplay:10.37,2013-06-19 14:45:00,
2013-06-19 09:50:00,69.3,14.4,27.19,North,0,0.0,0.0,12,0.00,CLR,OVC,0.00,WeatherDisplay:10.37,2013-06-19 14:50:00,
2013-06-19 09:55:00,69.6,14.7,27.19,North,0,0.0,0.0,12,0.00,CLR,OVC,0.00,WeatherDisplay:10.37,2013-06-19 14:55:00,
2013-06-19 10:00:00,70.2,15.1,27.19,North,0,0.0,0.0,12,0.00,CLR,OVC,0.00,WeatherDisplay:10.37,2013-06-19 15:00:00,
2013-06-19 10:05:00,70.3,15.3,27.19,North,0,0.0,0.0,12,0.00,CLR,OVC,0.00,WeatherDisplay:10.37,2013-06-19 15:05:00,
2013-06-19 10:10:00,70.5,15.4,27.19,North,0,0.0,0.0,12,0.00,CLR,OVC,0.00,WeatherDisplay:10.37,2013-06-19 15:10:00,
2013-06-19 10:15:00,70.9,15.7,27.19,North,0,0.0,0.0,12,0.00,CLR,OVC,0.00,WeatherDisplay:10.37,2013-06-19 15:15:00,
2013-06-19 10:20:00,71.4,16.1,27.19,North,0,0.0,0.0,12,0.00,CLR,OVC,0.00,WeatherDisplay:10.37,2013-06-19 15:20:00,
2013-06-19 10:25:00,72.0,14.5,27.19,North,0,0.0,0.0,11,0.00,CLR,OVC,0.00,WeatherDisplay:10.37,2013-06-19 15:25:00,
2013-06-19 10:30:00,72.5,14.9,27.19,North,0,0.0,0.0,11,0.00,CLR,OVC,0.00,WeatherDisplay:10.37,2013-06-19 15:30:00,
2013-06-19 10:35:00,73.0,15.4,27.19,North,0,0.0,0.0,11,0.00,CLR,OVC,0.00,WeatherDisplay:10.37,2013-06-19 15:35:00,
2013-06-19 10:40:00,73.2,15.5,27.19,North,0,0.0,0.0,11,0.00,CLR,OVC,0.00,WeatherDisplay:10.37,2013-06-19 15:40:00,
2013-06-19 10:45:00,73.2,10.9,27.19,North,0,0.0,0.0,9,0.00,CLR,OVC,0.00,WeatherDisplay:10.37,2013-06-19 15:45:00,
2013-06-19 10:50:00,73.6,15.8,27.19,North,0,0.0,0.0,11,0.00,CLR,OVC,0.00,WeatherDisplay:10.37,2013-06-19 15:50:00,
2013-06-19 10:55:00,73.9,16.1,27.19,North,0,0.0,0.0,11,0.00,CLR,OVC,0.00,WeatherDisplay:10.37,2013-06-19 15:55:00,
2013-06-19 11:00:00,74.5,16.5,27.19,North,0,0.0,0.0,11,0.00,CLR,OVC,0.00,WeatherDisplay:10.37,2013-06-19 16:00:00,
2013-06-19 11:05:00,75.4,15.0,27.19,North,0,0.0,0.0,10,0.00,CLR,OVC,0.00,WeatherDisplay:10.37,2013-06-19 16:05:00,
2013-06-19 11:10:00,75.9,15.4,27.19,North,0,0.0,0.0,10,0.00,CLR,OVC,0.00,WeatherDisplay:10.37,2013-06-19 16:10:00,
2013-06-19 11:15:00,76.6,15.9,27.19,North,0,0.0,0.0,10,0.00,CLR,OVC,0.00,WeatherDisplay:10.37,2013-06-19 16:15:00,
2013-06-19 11:20:00,77.7,11.7,27.19,North,0,0.0,0.0,8,0.00,CLR,OVC,0.00,WeatherDisplay:10.37,2013-06-19 16:20:00,
2013-06-19 11:25:00,78.6,12.3,27.19,North,0,0.0,0.0,8,0.00,CLR,OVC,0.00,WeatherDisplay:10.37,2013-06-19 16:25:00,
2013-06-19 11:30:00,79.3,9.9,27.19,North,0,0.0,0.0,7,0.00,CLR,OVC,0.00,WeatherDisplay:10.37,2013-06-19 16:30:00,
2013-06-19 11:35:00,80.2,10.5,27.19,North,0,0.0,0.0,7,0.00,CLR,OVC,0.00,WeatherDisplay:10.37,2013-06-19 16:35:00,
2013-06-19 11:40:00,81.0,11.0,27.19,North,0,0.0,0.0,7,0.00,CLR,OVC,0.00,WeatherDisplay:10.37,2013-06-19 16:40:00,
2013-06-19 11:45:00,81.0,11.0,27.19,North,0,0.0,0.0,7,0.00,CLR,OVC,0.00,WeatherDisplay:10.37,2013-06-19 16:45:00,
2013-06-19 11:50:00,81.5,11.4,27.19,North,0,0.0,0.0,7,0.00,CLR,OVC,0.00,WeatherDisplay:10.37,2013-06-19 16:50:00,
2013-06-19 11:55:00,82.2,12.0,27.19,North,0,0.0,0.0,7,0.00,CLR,OVC,0.00,WeatherDisplay:10.37,2013-06-19 16:55:00,
2013-06-19 12:00:00,82.9,9.0,27.19,North,0,0.0,0.0,6,0.00,CLR,OVC,0.00,WeatherDisplay:10.37,2013-06-19 17:00:00,
2013-06-19 12:05:00,84.0,9.8,27.19,North,0,0.0,0.0,6,0.00,CLR,OVC,0.00,WeatherDisplay:10.37,2013-06-19 17:05:00,
2013-06-19 12:10:00,84.6,10.2,27.19,North,0,0.0,0.0,6,0.00,CLR,OVC,0.00,WeatherDisplay:10.37,2013-06-19 17:10:00,
2013-06-19 12:15:00,84.4,10.1,27.19,North,0,0.0,0.0,6,0.00,CLR,OVC,0.00,WeatherDisplay:10.37,2013-06-19 17:15:00,
2013-06-19 12:21:00,84.6,10.2,27.19,North,0,0.0,0.0,6,0.00,CLR,OVC,0.00,WeatherDisplay:10.37,2013-06-19 17:21:00,
2013-06-19 12:26:00,85.1,10.6,27.19,North,0,0.0,0.0,6,0.00,CLR,OVC,0.00,WeatherDisplay:10.37,2013-06-19 17:26:00,
2013-06-19 12:31:00,84.9,10.5,27.19,North,0,0.0,0.0,6,0.00,CLR,OVC,0.00,WeatherDisplay:10.37,2013-06-19 17:31:00,
2013-06-19 12:36:00,84.6,10.2,27.19,North,0,0.0,0.0,6,0.00,CLR,OVC,0.00,WeatherDisplay:10.37,2013-06-19 17:36:00,
2013-06-19 12:41:00,84.0,9.8,27.19,North,0,0.0,0.0,6,0.00,CLR,OVC,0.00,WeatherDisplay:10.37,2013-06-19 17:41:00,
2013-06-19 12:46:00,84.2,9.9,27.19,North,0,0.0,0.0,6,0.00,CLR,OVC,0.00,WeatherDisplay:10.37,2013-06-19 17:46:00,
2013-06-19 12:51:00,84.9,10.5,27.19,North,0,0.0,0.0,6,0.00,CLR,OVC,0.00,WeatherDisplay:10.37,2013-06-19 17:51:00,
2013-06-19 12:56:00,85.1,10.6,27.19,North,0,0.0,0.0,6,0.00,CLR,OVC,0.00,WeatherDisplay:10.37,2013-06-19 17:56:00,
2013-06-19 13:01:00,85.1,10.6,27.19,North,0,0.0,0.0,6,0.00,CLR,OVC,0.00,WeatherDisplay:10.37,2013-06-19 18:01:00,
2013-06-19 13:06:00,85.5,10.8,27.19,North,0,0.0,0.0,6,0.00,CLR,OVC,0.00,WeatherDisplay:10.37,2013-06-19 18:06:00,
2013-06-19 13:11:00,85.1,10.6,27.19,North,0,0.0,0.0,6,0.00,CLR,OVC,0.00,WeatherDisplay:10.37,2013-06-19 18:11:00,
2013-06-19 13:16:00,84.6,10.2,27.19,North,0,0.0,0.0,6,0.00,CLR,OVC,0.00,WeatherDisplay:10.37,2013-06-19 18:16:00,
2013-06-19 13:21:00,84.2,9.9,27.19,North,0,0.0,0.0,6,0.00,CLR,OVC,0.00,WeatherDisplay:10.37,2013-06-19 18:21:00,
2013-06-19 13:26:00,84.2,9.9,27.19,North,0,0.0,0.0,6,0.00,CLR,OVC,0.00,WeatherDisplay:10.37,2013-06-19 18:26:00,
2013-06-19 13:31:00,85.1,10.6,27.19,North,0,0.0,0.0,6,0.00,CLR,OVC,0.00,WeatherDisplay:10.37,2013-06-19 18:31:00,
2013-06-19 13:36:00,85.6,11.0,27.19,North,0,0.0,0.0,6,0.00,CLR,OVC,0.00,WeatherDisplay:10.37,2013-06-19 18:36:00,
2013-06-19 13:41:00,85.8,11.1,27.19,North,0,0.0,0.0,6,0.00,CLR,OVC,0.00,WeatherDisplay:10.37,2013-06-19 18:41:00,
2013-06-19 13:46:00,86.0,11.2,27.19,North,0,0.0,0.0,6,0.00,CLR,OVC,0.00,WeatherDisplay:10.37,2013-06-19 18:46:00,
2013-06-19 13:51:00,86.0,11.2,27.19,North,0,0.0,0.0,6,0.00,CLR,OVC,0.00,WeatherDisplay:10.37,2013-06-19 18:51:00,
2013-06-19 13:56:00,86.0,11.2,27.19,North,0,0.0,0.0,6,0.00,CLR,OVC,0.00,WeatherDisplay:10.37,2013-06-19 18:56:00,
2013-06-19 14:01:00,86.5,11.6,27.19,North,0,0.0,0.0,6,0.00,CLR,OVC,0.00,WeatherDisplay:10.37,2013-06-19 19:01:00,
2013-06-19 14:06:00,86.9,11.9,27.19,North,0,0.0,0.0,6,0.00,CLR,OVC,0.00,WeatherDisplay:10.37,2013-06-19 19:06:00,
2013-06-19 14:11:00,86.7,11.7,27.19,North,0,0.0,0.0,6,0.00,CLR,OVC,0.00,WeatherDisplay:10.37,2013-06-19 19:11:00,
2013-06-19 14:16:00,85.6,11.0,27.19,North,0,0.0,0.0,6,0.00,CLR,OVC,0.00,WeatherDisplay:10.37,2013-06-19 19:16:00,
2013-06-19 14:21:00,85.6,11.0,27.19,North,0,0.0,0.0,6,0.00,CLR,OVC,0.00,WeatherDisplay:10.37,2013-06-19 19:21:00,
2013-06-19 14:26:00,86.0,11.2,27.19,North,0,0.0,0.0,6,0.00,CLR,OVC,0.00,WeatherDisplay:10.37,2013-06-19 19:26:00,
2013-06-19 14:31:00,86.4,11.5,27.19,North,0,0.0,0.0,6,0.00,CLR,OVC,0.00,WeatherDisplay:10.37,2013-06-19 19:31:00,
2013-06-19 14:36:00,87.1,12.0,27.19,North,0,0.0,0.0,6,0.00,CLR,OVC,0.00,WeatherDisplay:10.37,2013-06-19 19:36:00,
2013-06-19 14:41:00,87.6,12.4,27.19,North,0,0.0,0.0,6,0.00,CLR,OVC,0.00,WeatherDisplay:10.37,2013-06-19 19:41:00,
2013-06-19 14:46:00,88.0,8.6,27.19,North,0,0.0,0.0,5,0.00,CLR,OVC,0.00,WeatherDisplay:10.37,2013-06-19 19:46:00,
2013-06-19 14:51:00,86.9,11.9,27.19,North,0,0.0,0.0,6,0.00,CLR,OVC,0.00,WeatherDisplay:10.37,2013-06-19 19:51:00,
2013-06-19 14:56:00,85.5,10.8,27.19,North,0,0.0,0.0,6,0.00,CLR,OVC,0.00,WeatherDisplay:10.37,2013-06-19 19:56:00,
2013-06-19 15:01:00,84.0,9.8,27.19,North,0,0.0,0.0,6,0.00,CLR,OVC,0.00,WeatherDisplay:10.37,2013-06-19 20:01:00,
2013-06-19 15:06:00,82.8,8.9,27.19,North,0,0.0,0.0,6,0.00,CLR,OVC,0.00,WeatherDisplay:10.37,2013-06-19 20:06:00,
2013-06-19 15:11:00,81.3,11.3,27.19,North,0,0.0,0.0,7,0.00,CLR,OVC,0.00,WeatherDisplay:10.37,2013-06-19 20:11:00,
2013-06-19 15:16:00,81.0,11.0,27.19,North,0,0.0,0.0,7,0.00,CLR,OVC,0.00,WeatherDisplay:10.37,2013-06-19 20:16:00,
2013-06-19 15:21:00,80.4,10.6,27.19,North,0,0.0,0.0,7,0.00,CLR,OVC,0.00,WeatherDisplay:10.37,2013-06-19 20:21:00,
2013-06-19 15:26:00,81.0,11.0,27.19,North,0,0.0,0.0,7,0.00,CLR,OVC,0.00,WeatherDisplay:10.37,2013-06-19 20:26:00,
2013-06-19 15:31:00,82.4,8.6,27.19,North,0,0.0,0.0,6,0.00,CLR,OVC,0.00,WeatherDisplay:10.37,2013-06-19 20:31:00,
2013-06-19 15:36:00,83.7,9.5,27.19,North,0,0.0,0.0,6,0.00,CLR,OVC,0.00,WeatherDisplay:10.37,2013-06-19 20:36:00,
2013-06-19 15:41:00,84.6,10.2,27.19,North,0,0.0,0.0,6,0.00,CLR,OVC,0.00,WeatherDisplay:10.37,2013-06-19 20:41:00,
2013-06-19 15:46:00,85.1,10.6,27.19,North,0,0.0,0.0,6,0.00,CLR,OVC,0.00,WeatherDisplay:10.37,2013-06-19 20:46:00,
2013-06-19 15:51:00,85.3,10.7,27.19,North,0,0.0,0.0,6,0.00,CLR,OVC,0.00,WeatherDisplay:10.37,2013-06-19 20:51:00,
2013-06-19 15:56:00,84.7,10.3,27.19,North,0,0.0,0.0,6,0.00,CLR,OVC,0.00,WeatherDisplay:10.37,2013-06-19 20:56:00,
2013-06-19 16:01:00,84.2,9.9,27.19,North,0,0.0,0.0,6,0.00,CLR,OVC,0.00,WeatherDisplay:10.37,2013-06-19 21:01:00,
2013-06-19 16:06:00,84.0,9.8,27.19,North,0,0.0,0.0,6,0.00,CLR,OVC,0.00,WeatherDisplay:10.37,2013-06-19 21:06:00,
2013-06-19 16:11:00,84.6,10.2,27.19,North,0,0.0,0.0,6,0.00,CLR,OVC,0.00,WeatherDisplay:10.37,2013-06-19 21:11:00,
2013-06-19 16:16:00,84.9,10.5,27.19,North,0,0.0,0.0,6,0.00,CLR,OVC,0.00,WeatherDisplay:10.37,2013-06-19 21:16:00,
2013-06-19 16:21:00,85.5,10.8,27.19,North,0,0.0,0.0,6,0.00,CLR,OVC,0.00,WeatherDisplay:10.37,2013-06-19 21:21:00,
2013-06-19 16:26:00,86.2,11.4,27.19,North,0,0.0,0.0,6,0.00,CLR,OVC,0.00,WeatherDisplay:10.37,2013-06-19 21:26:00,
2013-06-19 16:31:00,87.1,12.0,27.19,North,0,0.0,0.0,6,0.00,CLR,OVC,0.00,WeatherDisplay:10.37,2013-06-19 21:31:00,
2013-06-19 16:36:00,87.4,12.3,27.19,North,0,0.0,0.0,6,0.00,CLR,OVC,0.00,WeatherDisplay:10.37,2013-06-19 21:36:00,
2013-06-19 16:41:00,87.1,12.0,27.19,North,0,0.0,0.0,6,0.00,CLR,OVC,0.00,WeatherDisplay:10.37,2013-06-19 21:41:00,
2013-06-19 16:46:00,86.7,11.7,27.19,North,0,0.0,0.0,6,0.00,CLR,OVC,0.00,WeatherDisplay:10.37,2013-06-19 21:46:00,
2013-06-19 16:51:00,86.7,11.7,27.19,North,0,0.0,0.0,6,0.00,CLR,OVC,0.00,WeatherDisplay:10.37,2013-06-19 21:51:00,
2013-06-19 16:56:00,86.9,11.9,27.19,North,0,0.0,0.0,6,0.00,CLR,OVC,0.00,WeatherDisplay:10.37,2013-06-19 21:56:00,
2013-06-19 17:01:00,86.4,11.5,27.19,North,0,0.0,0.0,6,0.00,CLR,OVC,0.00,WeatherDisplay:10.37,2013-06-19 22:01:00,
2013-06-19 17:06:00,85.8,11.1,27.19,North,0,0.0,0.0,6,0.00,CLR,OVC,0.00,WeatherDisplay:10.37,2013-06-19 22:06:00,
2013-06-19 17:11:00,85.6,11.0,27.19,North,0,0.0,0.0,6,0.00,CLR,OVC,0.00,WeatherDisplay:10.37,2013-06-19 22:11:00,
2013-06-19 17:16:00,85.6,11.0,27.19,North,0,0.0,0.0,6,0.00,CLR,OVC,0.00,WeatherDisplay:10.37,2013-06-19 22:16:00,
2013-06-19 17:21:00,85.6,11.0,27.19,North,0,0.0,0.0,6,0.00,CLR,OVC,0.00,WeatherDisplay:10.37,2013-06-19 22:21:00,
2013-06-19 17:26:00,85.8,11.1,27.19,North,0,0.0,0.0,6,0.00,CLR,OVC,0.00,WeatherDisplay:10.37,2013-06-19 22:26:00,
2013-06-19 17:31:00,85.5,10.8,27.19,North,0,0.0,0.0,6,0.00,CLR,OVC,0.00,WeatherDisplay:10.37,2013-06-19 22:31:00,
2013-06-19 17:36:00,85.1,10.6,27.19,North,0,0.0,0.0,6,0.00,CLR,OVC,0.00,WeatherDisplay:10.37,2013-06-19 22:36:00,
2013-06-19 17:41:00,84.9,10.5,27.19,North,0,0.0,0.0,6,0.00,CLR,OVC,0.00,WeatherDisplay:10.37,2013-06-19 22:41:00,
2013-06-19 17:46:00,84.6,10.2,27.19,North,0,0.0,0.0,6,0.00,CLR,OVC,0.00,WeatherDisplay:10.37,2013-06-19 22:46:00,
2013-06-19 17:51:00,83.3,9.3,27.19,North,0,0.0,0.0,6,0.00,CLR,OVC,0.00,WeatherDisplay:10.37,2013-06-19 22:51:00,
2013-06-19 17:56:00,81.7,11.6,27.19,North,0,0.0,0.0,7,0.00,CLR,OVC,0.00,WeatherDisplay:10.37,2013-06-19 22:56:00,
2013-06-19 18:01:00,80.8,10.9,27.19,North,0,0.0,0.0,7,0.00,CLR,OVC,0.00,WeatherDisplay:10.37,2013-06-19 23:01:00,
2013-06-19 18:06:00,79.9,10.2,27.19,North,0,0.0,0.0,7,0.00,CLR,OVC,0.00,WeatherDisplay:10.37,2013-06-19 23:06:00,
2013-06-19 18:11:00,79.7,10.1,27.19,North,0,0.0,0.0,7,0.00,CLR,OVC,0.00,WeatherDisplay:10.37,2013-06-19 23:11:00,
2013-06-19 18:16:00,79.5,10.0,27.19,North,0,0.0,0.0,7,0.00,CLR,OVC,0.00,WeatherDisplay:10.37,2013-06-19 23:16:00,
2013-06-19 18:21:00,79.5,10.0,27.19,North,0,0.0,0.0,7,0.00,CLR,OVC,0.00,WeatherDisplay:10.37,2013-06-19 23:21:00,
2013-06-19 18:26:00,79.5,10.0,27.19,North,0,0.0,0.0,7,0.00,CLR,OVC,0.00,WeatherDisplay:10.37,2013-06-19 23:26:00,
2013-06-19 18:31:00,79.5,10.0,27.19,North,0,0.0,0.0,7,0.00,CLR,OVC,0.00,WeatherDisplay:10.37,2013-06-19 23:31:00,
2013-06-19 18:36:00,79.3,9.9,27.19,North,0,0.0,0.0,7,0.00,CLR,OVC,0.00,WeatherDisplay:10.37,2013-06-19 23:36:00,
2013-06-19 18:41:00,78.8,9.5,27.19,North,0,0.0,0.0,7,0.00,CLR,OVC,0.00,WeatherDisplay:10.37,2013-06-19 23:41:00,
2013-06-19 18:46:00,78.4,12.2,27.19,North,0,0.0,0.0,8,0.00,CLR,OVC,0.00,WeatherDisplay:10.37,2013-06-19 23:46:00,
2013-06-19 18:51:00,77.7,11.7,27.19,North,0,0.0,0.0,8,0.00,CLR,OVC,0.00,WeatherDisplay:10.37,2013-06-19 23:51:00,
2013-06-19 18:56:00,77.2,11.3,27.19,North,0,0.0,0.0,8,0.00,CLR,OVC,0.00,WeatherDisplay:10.37,2013-06-19 23:56:00,
2013-06-19 19:01:00,77.0,11.1,27.19,North,0,0.0,0.0,8,0.00,CLR,OVC,0.00,WeatherDisplay:10.37,2013-06-20 00:01:00,
2013-06-19 19:06:00,77.0,11.1,27.19,North,0,0.0,0.0,8,0.00,CLR,OVC,0.00,WeatherDisplay:10.37,2013-06-20 00:06:00,
2013-06-19 19:11:00,77.0,11.1,27.19,North,0,0.0,0.0,8,0.00,CLR,OVC,0.00,WeatherDisplay:10.37,2013-06-20 00:11:00,
2013-06-19 19:16:00,77.4,11.4,27.19,North,0,0.0,0.0,8,0.00,CLR,OVC,0.00,WeatherDisplay:10.37,2013-06-20 00:16:00,
2013-06-19 19:21:00,77.5,11.5,27.19,North,0,0.0,0.0,8,0.00,CLR,OVC,0.00,WeatherDisplay:10.37,2013-06-20 00:21:00,
2013-06-19 19:26:00,77.5,11.5,27.19,North,0,0.0,0.0,8,0.00,CLR,OVC,0.00,WeatherDisplay:10.37,2013-06-20 00:26:00,
2013-06-19 19:31:00,77.5,11.5,27.19,North,0,0.0,0.0,8,0.00,CLR,OVC,0.00,WeatherDisplay:10.37,2013-06-20 00:31:00,
2013-06-19 19:36:00,77.7,11.7,27.19,North,0,0.0,0.0,8,0.00,CLR,OVC,0.00,WeatherDisplay:10.37,2013-06-20 00:36:00,
2013-06-19 19:41:00,77.7,11.7,27.19,North,0,0.0,0.0,8,0.00,CLR,OVC,0.00,WeatherDisplay:10.37,2013-06-20 00:41:00,
2013-06-19 19:46:00,77.5,11.5,27.19,North,0,0.0,0.0,8,0.00,CLR,OVC,0.00,WeatherDisplay:10.37,2013-06-20 00:46:00,
2013-06-19 19:51:00,77.5,11.5,27.19,North,0,0.0,0.0,8,0.00,CLR,OVC,0.00,WeatherDisplay:10.37,2013-06-20 00:51:00,
2013-06-19 19:56:00,77.2,11.3,27.19,North,0,0.0,0.0,8,0.00,CLR,OVC,0.00,WeatherDisplay:10.37,2013-06-20 00:56:00,
2013-06-19 20:01:00,76.6,10.9,27.19,North,0,0.0,0.0,8,0.00,CLR,OVC,0.00,WeatherDisplay:10.37,2013-06-20 01:01:00,
2013-06-19 20:06:00,75.9,10.3,27.19,North,0,0.0,0.0,8,0.00,CLR,OVC,0.00,WeatherDisplay:10.37,2013-06-20 01:06:00,
2013-06-19 20:11:00,75.4,9.9,27.19,North,0,0.0,0.0,8,0.00,CLR,OVC,0.00,WeatherDisplay:10.37,2013-06-20 01:11:00,
2013-06-19 20:16:00,74.8,9.5,27.19,North,0,0.0,0.0,8,0.00,CLR,OVC,0.00,WeatherDisplay:10.37,2013-06-20 01:16:00,
2013-06-19 20:21:00,74.5,9.2,27.19,North,0,0.0,0.0,8,0.00,CLR,OVC,0.00,WeatherDisplay:10.37,2013-06-20 01:21:00,
2013-06-19 20:26:00,74.1,9.0,27.19,North,0,0.0,0.0,8,0.00,CLR,OVC,0.00,WeatherDisplay:10.37,2013-06-20 01:26:00,
2013-06-19 20:31:00,73.8,8.7,27.19,North,0,0.0,0.0,8,0.00,CLR,OVC,0.00,WeatherDisplay:10.37,2013-06-20 01:31:00,
2013-06-19 20:36:00,73.6,8.6,27.19,North,0,0.0,0.0,8,0.00,CLR,OVC,0.00,WeatherDisplay:10.37,2013-06-20 01:36:00,
2013-06-19 20:41:00,73.2,10.9,27.19,North,0,0.0,0.0,9,0.00,CLR,OVC,0.00,WeatherDisplay:10.37,2013-06-20 01:41:00,
2013-06-19 20:46:00,72.9,15.2,27.19,North,0,0.0,0.0,11,0.00,CLR,OVC,0.00,WeatherDisplay:10.37,2013-06-20 01:46:00,
2013-06-19 20:51:00,72.7,15.1,27.19,North,0,0.0,0.0,11,0.00,CLR,OVC,0.00,WeatherDisplay:10.37,2013-06-20 01:51:00,
2013-06-19 20:56:00,72.5,14.9,27.19,North,0,0.0,0.0,11,0.00,CLR,OVC,0.00,WeatherDisplay:10.37,2013-06-20 01:56:00,
2013-06-19 21:01:00,72.1,14.7,27.19,North,0,0.0,0.0,11,0.00,CLR,OVC,0.00,WeatherDisplay:10.37,2013-06-20 02:01:00,
2013-06-19 21:06:00,72.0,14.5,27.19,North,0,0.0,0.0,11,0.00,CLR,OVC,0.00,WeatherDisplay:10.37,2013-06-20 02:06:00,
2013-06-19 21:11:00,71.8,14.4,27.19,North,0,0.0,0.0,11,0.00,CLR,OVC,0.00,WeatherDisplay:10.37,2013-06-20 02:11:00,
2013-06-19 21:16:00,71.6,14.2,27.19,North,0,0.0,0.0,11,0.00,CLR,OVC,0.00,WeatherDisplay:10.37,2013-06-20 02:16:00,
2013-06-19 21:21:00,71.4,16.1,27.19,North,0,0.0,0.0,12,0.00,CLR,OVC,0.00,WeatherDisplay:10.37,2013-06-20 02:21:00,
2013-06-19 21:26:00,71.2,16.0,27.19,North,0,0.0,0.0,12,0.00,CLR,OVC,0.00,WeatherDisplay:10.37,2013-06-20 02:26:00,
2013-06-19 21:31:00,70.9,15.7,27.19,North,0,0.0,0.0,12,0.00,CLR,OVC,0.00,WeatherDisplay:10.37,2013-06-20 02:31:00,
2013-06-19 21:36:00,70.7,15.5,27.19,North,0,0.0,0.0,12,0.00,CLR,OVC,0.00,WeatherDisplay:10.37,2013-06-20 02:36:00,
2013-06-19 21:41:00,70.5,15.4,27.19,North,0,0.0,0.0,12,0.00,CLR,OVC,0.00,WeatherDisplay:10.37,2013-06-20 02:41:00,
2013-06-19 21:46:00,70.5,15.4,27.19,North,0,0.0,0.0,12,0.00,CLR,OVC,0.00,WeatherDisplay:10.37,2013-06-20 02:46:00,
2013-06-19 21:51:00,70.3,15.3,27.19,North,0,0.0,0.0,12,0.00,CLR,OVC,0.00,WeatherDisplay:10.37,2013-06-20 02:51:00,
2013-06-19 21:56:00,70.3,15.3,27.19,North,0,0.0,0.0,12,0.00,CLR,OVC,0.00,WeatherDisplay:10.37,2013-06-20 02:56:00,
2013-06-19 22:01:00,70.2,15.1,27.19,North,0,0.0,0.0,12,0.00,CLR,OVC,0.00,WeatherDisplay:10.37,2013-06-20 03:01:00,
2013-06-19 22:06:00,70.2,15.1,27.19,North,0,0.0,0.0,12,0.00,CLR,OVC,0.00,WeatherDisplay:10.37,2013-06-20 03:06:00,
2013-06-19 22:11:00,70.2,15.1,27.19,North,0,0.0,0.0,12,0.00,CLR,OVC,0.00,WeatherDisplay:10.37,2013-06-20 03:11:00,
2013-06-19 22:16:00,70.2,15.1,27.19,North,0,0.0,0.0,12,0.00,CLR,OVC,0.00,WeatherDisplay:10.37,2013-06-20 03:16:00,
2013-06-19 22:21:00,70.0,15.0,27.19,North,0,0.0,0.0,12,0.00,CLR,OVC,0.00,WeatherDisplay:10.37,2013-06-20 03:21:00,
2013-06-19 22:26:00,70.0,15.0,27.19,North,0,0.0,0.0,12,0.00,CLR,OVC,0.00,WeatherDisplay:10.37,2013-06-20 03:26:00,
2013-06-19 22:31:00,69.8,14.8,27.19,North,0,0.0,0.0,12,0.00,CLR,OVC,0.00,WeatherDisplay:10.37,2013-06-20 03:31:00,
2013-06-19 22:36:00,69.6,14.7,27.19,North,0,0.0,0.0,12,0.00,CLR,OVC,0.00,WeatherDisplay:10.37,2013-06-20 03:36:00,
2013-06-19 22:41:00,69.6,14.7,27.19,North,0,0.0,0.0,12,0.00,CLR,OVC,0.00,WeatherDisplay:10.37,2013-06-20 03:41:00,
2013-06-19 22:46:00,69.6,14.7,27.19,North,0,0.0,0.0,12,0.00,CLR,OVC,0.00,WeatherDisplay:10.37,2013-06-20 03:46:00,
2013-06-19 22:51:00,69.4,14.6,27.19,North,0,0.0,0.0,12,0.00,CLR,OVC,0.00,WeatherDisplay:10.37,2013-06-20 03:51:00,
2013-06-19 22:56:00,69.4,14.6,27.19,North,0,0.0,0.0,12,0.00,CLR,OVC,0.00,WeatherDisplay:10.37,2013-06-20 03:56:00,
2013-06-19 23:01:00,69.3,14.4,27.19,North,0,0.0,0.0,12,0.00,CLR,OVC,0.00,WeatherDisplay:10.37,2013-06-20 04:01:00,
2013-06-19 23:02:00,69.3,14.4,27.19,North,0,0.0,0.0,12,0.00,CLR,OVC,0.00,WeatherDisplay:10.37,2013-06-20 04:02:00,
2013-06-19 23:03:00,69.3,14.4,27.19,North,0,0.0,0.0,12,0.00,CLR,OVC,0.00,WeatherDisplay:10.37,2013-06-20 04:03:00,
2013-06-19 23:08:00,69.1,19.4,27.19,North,0,0.0,0.0,15,0.00,CLR,OVC,0.00,WeatherDisplay:10.37,2013-06-20 04:08:00,
2013-06-19 23:13:00,68.9,19.3,27.19,North,0,0.0,0.0,15,0.00,CLR,OVC,0.00,WeatherDisplay:10.37,2013-06-20 04:13:00,
2013-06-19 23:18:00,68.9,19.3,27.19,North,0,0.0,0.0,15,0.00,CLR,OVC,0.00,WeatherDisplay:10.37,2013-06-20 04:18:00,
2013-06-19 23:23:00,68.9,19.3,27.19,North,0,0.0,0.0,15,0.00,CLR,OVC,0.00,WeatherDisplay:10.37,2013-06-20 04:23:00,
2013-06-19 23:28:00,68.9,14.1,27.19,North,0,0.0,0.0,12,0.00,CLR,OVC,0.00,WeatherDisplay:10.37,2013-06-20 04:28:00,
2013-06-19 23:33:00,69.1,14.3,27.19,North,0,0.0,0.0,12,0.00,CLR,OVC,0.00,WeatherDisplay:10.37,2013-06-20 04:33:00,
2013-06-19 23:38:00,69.3,14.4,27.19,North,0,0.0,0.0,12,0.00,CLR,OVC,0.00,WeatherDisplay:10.37,2013-06-20 04:38:00,
2013-06-19 23:43:00,69.6,14.7,27.19,North,0,0.0,0.0,12,0.00,CLR,OVC,0.00,WeatherDisplay:10.37,2013-06-20 04:43:00,
2013-06-19 23:48:00,69.8,14.8,27.19,North,0,0.0,0.0,12,0.00,CLR,OVC,0.00,WeatherDisplay:10.37,2013-06-20 04:48:00,
2013-06-19 23:53:00,70.2,15.1,27.19,North,0,0.0,0.0,12,0.00,CLR,OVC,0.00,WeatherDisplay:10.37,2013-06-20 04:53:00,
2013-06-19 23:58:00,70.3,15.3,27.19,North,0,0.0,0.0,12,0.00,CLR,OVC,0.00,WeatherDisplay:10.37,2013-06-20 04:58:00,